Portada
METAR-TAF:

METAR-TAF

Aeroports :

Sibu, Malàisia

latitud: 02-20N, longitud: 111-50E, altitud: 8 m

Observació

L'informe es va fer fa 10 minuts, a les 12:00 UTC
Vent calma
Temperatura 28°C
Humitat 89%
Pressió 1009 hPa
Visibilitat: 2000 m
Núvols disperses a una alçada de 1800 ft
Cel ennuvolat a una alçada de 15000 ft
calitja

METAR: WBGS 181200Z 00000KT 2000 HZ SCT018 BKN150 28/26 Q1009

Hora: 20:10 (12:10 UTC)

Pronòstic

L'informe es va fer fa 1 hora i 10 minuts, a les 11:00 UTC
Pronòstic vàlid del 18 a les 12 UTC al 19 a les 12 UTC
Vent 3 kt amb direcció variable
Visibilitat: 3000 m
Núvols disperses a una alçada de 1800 ft
calitja

TAF: WBGS 181100Z 1812/1912 VRB03KT 3000 HZ SCT018

Observacions i pronòstics meteorològics de més de 4000 aeroports (METAR i TAF).

Les estacions disponibles són els punts grocs i vermells al mapa.

Posi el ratolí al punt desitjat per veure el nom de l'estació.

Feu clic per veure les observacions i els pronòstics meteorològics.

Per canviar el mapa: feu clic els botons verds amb una creu de color negre per apropar; al botó verd amb un guió per allunyar la imatge; o en les fletxes verdes per a mapes adjacents.


METAR-TAF: